createdAt,value
2018-06-03T00:01:43.056Z,15.05
2018-06-03T00:04:11.349Z,14.89
2018-06-03T00:06:39.616Z,14.90
2018-06-03T00:09:07.906Z,14.86
2018-06-03T00:11:36.175Z,14.85
2018-06-03T00:14:04.455Z,14.68
2018-06-03T00:16:32.756Z,14.67
2018-06-03T00:19:02.031Z,14.75
2018-06-03T00:21:43.124Z,14.67
2018-06-03T00:24:11.474Z,14.68
2018-06-03T00:26:39.742Z,14.84
2018-06-03T00:29:08.038Z,14.65
2018-06-03T00:31:38.251Z,14.69
2018-06-03T00:34:06.509Z,14.76
2018-06-03T00:36:43.587Z,14.55
2018-06-03T00:39:11.869Z,14.45
2018-06-03T00:41:40.919Z,14.37
2018-06-03T00:44:09.191Z,14.35
2018-06-03T00:46:37.454Z,14.33
2018-06-03T00:49:05.759Z,14.30
2018-06-03T00:51:34.055Z,14.34
2018-06-03T00:54:02.365Z,14.40
2018-06-03T00:56:48.145Z,14.39
2018-06-03T00:59:17.218Z,14.42
2018-06-03T01:01:45.504Z,14.29
2018-06-03T01:04:13.843Z,14.41
2018-06-03T01:06:42.125Z,14.48
2018-06-03T01:09:10.404Z,14.57
2018-06-03T01:11:38.678Z,14.39
2018-06-03T01:14:06.965Z,14.19
2018-06-03T01:16:36.255Z,14.25
2018-06-03T01:19:04.553Z,14.33
2018-06-03T01:21:32.837Z,14.32
2018-06-03T01:24:01.094Z,14.20
2018-06-03T01:26:29.389Z,14.02
2018-06-03T01:28:57.658Z,14.09
2018-06-03T01:31:25.926Z,14.17
2018-06-03T01:33:54.247Z,14.22
2018-06-03T01:36:22.520Z,14.19
2018-06-03T01:38:50.810Z,14.14
2018-06-03T01:41:19.161Z,14.00
2018-06-03T01:43:47.438Z,14.13
2018-06-03T01:46:15.714Z,14.12
2018-06-03T01:48:44.291Z,14.07
2018-06-03T01:51:12.554Z,13.97
2018-06-03T01:53:40.825Z,13.97
2018-06-03T01:56:09.125Z,13.86
2018-06-03T01:58:37.407Z,13.87
2018-06-03T02:01:05.712Z,13.80
2018-06-03T02:03:34.790Z,13.78
2018-06-03T02:06:03.081Z,13.69
2018-06-03T02:08:31.365Z,13.69
2018-06-03T02:10:59.622Z,13.69
2018-06-03T02:13:27.925Z,13.87
2018-06-03T02:15:56.193Z,13.77
2018-06-03T02:18:25.260Z,13.72
2018-06-03T02:20:53.529Z,13.80
2018-06-03T02:23:21.893Z,13.79
2018-06-03T02:25:53.617Z,13.73
2018-06-03T02:28:21.896Z,13.64
2018-06-03T02:30:51.858Z,13.68
2018-06-03T02:33:20.119Z,13.77
2018-06-03T02:35:48.369Z,13.58
2018-06-03T02:38:18.572Z,13.53
2018-06-03T02:40:46.862Z,13.66
2018-06-03T02:43:16.297Z,13.61
2018-06-03T02:45:44.591Z,13.56
2018-06-03T02:48:12.865Z,13.66
2018-06-03T02:50:41.155Z,13.51
2018-06-03T02:53:09.821Z,13.35
2018-06-03T02:55:38.518Z,13.36
2018-06-03T02:58:06.824Z,13.27
2018-06-03T03:00:35.278Z,13.19
2018-06-03T03:03:03.543Z,13.28
2018-06-03T03:05:31.812Z,13.29
2018-06-03T03:08:00.080Z,13.23
2018-06-03T03:10:30.665Z,13.09
2018-06-03T03:12:58.943Z,13.32
2018-06-03T03:15:27.228Z,13.25
2018-06-03T03:17:55.502Z,13.35
2018-06-03T03:20:23.863Z,13.29
2018-06-03T03:22:52.159Z,13.08
2018-06-03T03:25:20.446Z,13.14
2018-06-03T03:27:48.746Z,13.05
2018-06-03T03:30:17.784Z,12.95
2018-06-03T03:32:46.100Z,13.04
2018-06-03T03:35:14.359Z,12.94
2018-06-03T03:37:42.647Z,13.04
2018-06-03T03:40:10.921Z,12.97
2018-06-03T03:42:39.278Z,12.92
2018-06-03T03:45:07.558Z,12.98
2018-06-03T03:47:35.859Z,12.92
2018-06-03T03:50:04.154Z,13.04
2018-06-03T03:52:33.369Z,12.93
2018-06-03T03:55:02.712Z,12.91
2018-06-03T03:57:30.973Z,12.98
2018-06-03T03:59:59.277Z,12.86
2018-06-03T04:02:27.566Z,12.92
2018-06-03T04:04:57.784Z,12.94
2018-06-03T04:07:26.155Z,12.95
2018-06-03T04:09:54.449Z,12.83
2018-06-03T04:12:22.745Z,12.84
2018-06-03T04:14:51.922Z,12.88
2018-06-03T04:17:20.310Z,12.93
2018-06-03T04:19:49.568Z,12.94
2018-06-03T04:22:17.857Z,12.94
2018-06-03T04:24:46.120Z,12.95
2018-06-03T04:27:15.374Z,13.03
2018-06-03T04:29:43.710Z,13.17
2018-06-03T04:32:16.713Z,13.26
2018-06-03T04:34:45.089Z,13.35
2018-06-03T04:37:14.399Z,13.40
2018-06-03T04:39:44.626Z,13.51
2018-06-03T04:42:13.031Z,13.50
2018-06-03T04:44:44.780Z,13.60
2018-06-03T04:47:13.754Z,13.61
2018-06-03T04:49:44.986Z,13.66
2018-06-03T04:52:16.663Z,13.71
2018-06-03T04:54:49.276Z,13.81
2018-06-03T04:57:18.639Z,13.84
2018-06-03T04:59:50.411Z,13.79
2018-06-03T05:02:18.802Z,13.86
2018-06-03T05:04:47.139Z,13.95
2018-06-03T05:07:15.546Z,14.01
2018-06-03T05:09:44.825Z,14.02
2018-06-03T05:12:15.068Z,14.16
2018-06-03T05:14:43.470Z,14.19
2018-06-03T05:17:11.804Z,14.22
2018-06-03T05:19:41.142Z,14.24
2018-06-03T05:22:11.356Z,14.24
2018-06-03T05:24:40.639Z,14.28
2018-06-03T05:27:21.259Z,14.33
2018-06-03T05:29:49.701Z,14.41
2018-06-03T05:32:18.118Z,14.51
2018-06-03T05:34:46.482Z,14.56
2018-06-03T05:37:14.855Z,14.62
2018-06-03T05:39:43.207Z,14.74
2018-06-03T05:42:15.034Z,14.83
2018-06-03T05:44:47.980Z,14.88
2018-06-03T05:47:16.364Z,14.94
2018-06-03T05:49:44.723Z,14.97
2018-06-03T05:52:14.020Z,15.07
2018-06-03T05:54:42.437Z,15.14
2018-06-03T05:57:11.701Z,15.19
2018-06-03T05:59:49.906Z,15.27
2018-06-03T06:02:18.316Z,15.38
2018-06-03T06:04:47.610Z,15.47
2018-06-03T06:07:20.468Z,15.54
2018-06-03T06:09:51.578Z,15.62
2018-06-03T06:12:21.961Z,15.68
2018-06-03T06:14:52.182Z,15.76
2018-06-03T06:17:20.580Z,15.81
2018-06-03T06:19:54.499Z,15.86
2018-06-03T06:22:24.016Z,15.94
2018-06-03T06:24:54.394Z,16.04
2018-06-03T06:27:22.719Z,16.12
2018-06-03T06:29:57.194Z,16.21
2018-06-03T06:32:29.256Z,16.27
2018-06-03T06:34:57.665Z,16.34
2018-06-03T06:37:26.069Z,16.45
2018-06-03T06:39:54.478Z,16.54
2018-06-03T06:42:23.534Z,16.63
2018-06-03T06:44:51.828Z,16.72
2018-06-03T06:47:23.281Z,16.81
2018-06-03T06:49:55.335Z,16.87
2018-06-03T06:52:24.016Z,16.88
2018-06-03T06:54:53.312Z,16.97
2018-06-03T06:57:28.444Z,17.07
2018-06-03T06:59:57.738Z,17.17
2018-06-03T07:02:26.138Z,17.27
2018-06-03T07:04:54.519Z,17.39
2018-06-03T07:07:25.939Z,17.51
2018-06-03T07:09:54.391Z,17.67
2018-06-03T07:12:23.667Z,17.76
2018-06-03T07:14:52.938Z,17.89
2018-06-03T07:17:26.605Z,18.00
2018-06-03T07:19:55.652Z,18.07
2018-06-03T07:22:28.852Z,18.16
2018-06-03T07:24:57.225Z,18.22
2018-06-03T07:27:27.449Z,18.28
2018-06-03T07:30:00.138Z,18.40
2018-06-03T07:32:29.423Z,18.47
2018-06-03T07:34:59.639Z,18.54
2018-06-03T07:37:28.946Z,18.66
2018-06-03T07:39:57.337Z,18.78
2018-06-03T07:42:33.999Z,18.85
2018-06-03T07:45:02.381Z,18.93
2018-06-03T07:47:30.813Z,19.01
2018-06-03T07:50:05.104Z,19.10
2018-06-03T07:52:33.404Z,19.20
2018-06-03T07:55:06.392Z,19.26
2018-06-03T07:57:34.709Z,19.28
2018-06-03T08:00:03.100Z,19.27
2018-06-03T08:02:31.649Z,19.20
2018-06-03T08:04:59.876Z,19.28
2018-06-03T08:07:36.216Z,19.38
2018-06-03T08:10:10.446Z,19.46
2018-06-03T08:12:38.855Z,19.60
2018-06-03T08:15:11.952Z,19.69
2018-06-03T08:17:40.446Z,19.85
2018-06-03T08:20:09.811Z,19.94
2018-06-03T08:22:39.121Z,19.99
2018-06-03T08:25:09.330Z,20.02
2018-06-03T08:27:39.554Z,20.04
2018-06-03T08:30:20.503Z,20.07
2018-06-03T08:32:49.845Z,20.14
2018-06-03T08:35:22.541Z,20.15
2018-06-03T08:37:50.898Z,20.16
2018-06-03T08:40:21.112Z,20.20
2018-06-03T08:42:49.494Z,20.24
2018-06-03T08:45:17.887Z,20.32
2018-06-03T08:47:46.243Z,20.42
2018-06-03T08:50:22.020Z,20.49
2018-06-03T08:52:50.402Z,20.59
2018-06-03T08:55:19.730Z,20.62
2018-06-03T08:57:49.307Z,20.66
2018-06-03T09:00:17.721Z,20.68
2018-06-03T09:02:46.072Z,20.69
2018-06-03T09:05:23.018Z,20.75
2018-06-03T09:07:57.562Z,20.80
2018-06-03T09:10:31.461Z,20.86
2018-06-03T09:13:00.809Z,20.91
2018-06-03T09:15:32.230Z,20.94
2018-06-03T09:18:03.993Z,20.98
2018-06-03T09:20:32.371Z,21.07
2018-06-03T09:23:07.533Z,21.26
2018-06-03T09:25:35.885Z,21.33
2018-06-03T09:28:06.088Z,21.37
2018-06-03T09:30:36.357Z,21.44
2018-06-03T09:33:22.455Z,21.31
2018-06-03T09:35:50.920Z,21.37
2018-06-03T09:38:22.708Z,21.38
2018-06-03T09:40:51.099Z,21.36
2018-06-03T09:43:27.110Z,21.36
2018-06-03T09:45:55.522Z,21.39
2018-06-03T09:48:23.871Z,21.40
2018-06-03T09:50:58.698Z,21.52
2018-06-03T09:53:27.091Z,21.71
2018-06-03T09:56:01.378Z,21.70
2018-06-03T09:58:29.681Z,21.76
2018-06-03T10:01:01.804Z,21.84
2018-06-03T10:03:32.894Z,21.93
2018-06-03T10:06:01.327Z,21.98
2018-06-03T10:08:33.978Z,22.02
2018-06-03T10:11:02.343Z,22.11
2018-06-03T10:13:38.369Z,22.10
2018-06-03T10:16:08.647Z,22.14
2018-06-03T10:18:37.930Z,22.14
2018-06-03T10:21:06.319Z,22.16
2018-06-03T10:23:37.751Z,22.25
2018-06-03T10:26:06.046Z,22.40
2018-06-03T10:29:13.609Z,22.14
2018-06-03T10:31:43.180Z,22.05
2018-06-03T10:34:12.645Z,22.05
2018-06-03T10:36:42.151Z,21.97
2018-06-03T10:39:11.649Z,22.07
2018-06-03T10:41:41.289Z,22.09
2018-06-03T10:44:10.733Z,22.14
2018-06-03T10:46:40.178Z,22.25
2018-06-03T10:49:09.644Z,22.38
2018-06-03T10:51:39.076Z,22.45
2018-06-03T10:54:08.561Z,22.57
2018-06-03T10:56:38.132Z,22.49
2018-06-03T10:59:07.565Z,22.53
2018-06-03T11:01:37.022Z,22.60
2018-06-03T11:04:06.462Z,22.69
2018-06-03T11:06:36.465Z,22.73
2018-06-03T11:09:07.899Z,22.82
2018-06-03T11:11:37.372Z,22.82
2018-06-03T11:14:06.790Z,22.84
2018-06-03T11:16:36.311Z,22.87
2018-06-03T11:19:05.792Z,22.96
2018-06-03T11:21:35.188Z,22.98
2018-06-03T11:24:04.625Z,23.02
2018-06-03T11:26:34.094Z,23.18
2018-06-03T11:29:03.583Z,23.45
2018-06-03T11:31:33.018Z,23.42
2018-06-03T11:34:02.456Z,23.47
2018-06-03T11:36:31.900Z,23.49
2018-06-03T11:39:01.325Z,23.42
2018-06-03T11:41:30.734Z,23.42
2018-06-03T11:44:00.138Z,23.53
2018-06-03T11:46:29.596Z,23.57
2018-06-03T11:48:59.029Z,23.61
2018-06-03T11:51:28.226Z,23.74
2018-06-03T11:53:57.590Z,23.77
2018-06-03T11:58:46.386Z,23.75
2018-06-03T12:01:15.771Z,23.90
2018-06-03T12:03:45.227Z,23.97
2018-06-03T12:06:14.716Z,24.01
2018-06-03T12:08:44.230Z,24.13
2018-06-03T12:11:13.633Z,24.09
2018-06-03T12:13:43.076Z,24.00
2018-06-03T12:16:12.473Z,24.04
2018-06-03T12:18:41.823Z,24.03
2018-06-03T12:21:11.270Z,24.05
2018-06-03T12:23:40.839Z,24.20
2018-06-03T12:26:11.390Z,24.28
2018-06-03T12:28:40.550Z,24.29
2018-06-03T12:31:09.918Z,24.31
2018-06-03T12:33:39.389Z,24.37
2018-06-03T12:36:08.771Z,24.48
2018-06-03T12:38:38.190Z,24.54
2018-06-03T12:41:07.345Z,24.65
2018-06-03T12:43:36.753Z,24.72
2018-06-03T12:46:06.990Z,24.85
2018-06-03T12:48:36.448Z,25.04
2018-06-03T12:51:05.999Z,25.07
2018-06-03T12:53:35.388Z,25.01
2018-06-03T12:56:04.865Z,25.00
2018-06-03T12:58:34.301Z,25.01
2018-06-03T13:01:03.779Z,25.01
2018-06-03T13:03:33.172Z,24.97
2018-06-03T13:06:02.618Z,24.88
2018-06-03T13:08:32.036Z,24.99
2018-06-03T13:11:01.470Z,25.01
2018-06-03T13:13:30.928Z,25.17
2018-06-03T13:16:00.332Z,25.26
2018-06-03T13:18:29.753Z,25.44
2018-06-03T13:20:59.248Z,25.53
2018-06-03T13:23:28.652Z,25.48
2018-06-03T13:25:58.133Z,25.60
2018-06-03T13:28:27.582Z,25.78
2018-06-03T13:30:57.057Z,25.93
2018-06-03T13:33:26.432Z,26.18
2018-06-03T13:35:55.825Z,26.09
2018-06-03T13:38:25.268Z,25.88
2018-06-03T13:40:54.687Z,25.95
2018-06-03T13:43:24.128Z,26.14
2018-06-03T13:45:53.597Z,26.17
2018-06-03T13:48:23.019Z,26.28
2018-06-03T13:50:52.403Z,26.36
2018-06-03T13:53:21.808Z,26.44
2018-06-03T13:55:51.183Z,26.59
2018-06-03T13:58:20.631Z,26.68
2018-06-03T14:00:50.103Z,26.64
2018-06-03T14:03:19.566Z,26.49
2018-06-03T14:05:49.014Z,26.31
2018-06-03T14:08:18.421Z,26.62
2018-06-03T14:10:47.869Z,26.83
2018-06-03T14:13:17.307Z,26.67
2018-06-03T14:15:46.690Z,26.52
2018-06-03T14:18:16.124Z,26.33
2018-06-03T14:20:45.509Z,25.99
2018-06-03T14:23:14.987Z,25.77
2018-06-03T14:25:44.392Z,25.86
2018-06-03T14:28:13.842Z,26.19
2018-06-03T14:30:44.520Z,26.52
2018-06-03T14:33:14.103Z,26.81
2018-06-03T14:35:45.885Z,26.95
2018-06-03T14:38:18.536Z,27.14
2018-06-03T14:40:48.111Z,27.18
2018-06-03T14:43:17.564Z,27.15
2018-06-03T14:45:46.995Z,27.21
2018-06-03T14:48:16.724Z,27.19
2018-06-03T14:50:48.341Z,27.40
2018-06-03T14:53:18.955Z,27.65
2018-06-03T14:55:53.456Z,27.87
2018-06-03T14:58:22.847Z,28.10
2018-06-03T15:00:52.289Z,28.31
2018-06-03T15:03:23.758Z,28.50
2018-06-03T15:06:16.666Z,28.71
2018-06-03T15:08:48.151Z,28.32
2018-06-03T15:11:18.663Z,27.96
2018-06-03T15:13:54.147Z,27.74
2018-06-03T15:16:27.263Z,28.15
2018-06-03T15:18:56.703Z,28.56
2018-06-03T15:21:28.252Z,28.89
2018-06-03T15:23:57.808Z,29.08
2018-06-03T15:26:27.436Z,29.39
2018-06-03T15:29:01.754Z,29.58
2018-06-03T15:31:55.933Z,29.71
2018-06-03T15:34:27.631Z,29.91
2018-06-03T15:36:58.934Z,30.14
2018-06-03T15:39:35.758Z,29.57
2018-06-03T15:42:10.653Z,29.07
2018-06-03T15:44:41.146Z,28.62
2018-06-03T15:47:10.602Z,28.24
2018-06-03T15:49:40.045Z,27.89
2018-06-03T15:52:09.188Z,28.07
2018-06-03T15:54:38.568Z,28.66
2018-06-03T15:57:08.000Z,29.02
2018-06-03T15:59:37.428Z,29.30
2018-06-03T16:02:07.125Z,29.63
2018-06-03T16:04:36.521Z,29.45
2018-06-03T16:07:06.143Z,29.37
2018-06-03T16:09:35.565Z,29.28
2018-06-03T16:12:05.057Z,29.05
2018-06-03T16:14:34.565Z,28.81
2018-06-03T16:17:04.000Z,28.49
2018-06-03T16:19:33.516Z,28.22
2018-06-03T16:22:02.676Z,28.03
2018-06-03T16:24:32.129Z,27.84
2018-06-03T16:27:01.258Z,27.90
2018-06-03T16:29:30.685Z,27.85
2018-06-03T16:32:00.143Z,28.04
2018-06-03T16:34:29.591Z,28.34
2018-06-03T16:37:00.026Z,28.61
2018-06-03T16:39:29.423Z,28.81
2018-06-03T16:41:58.882Z,29.34
2018-06-03T16:44:28.398Z,29.47
2018-06-03T16:46:57.890Z,29.47
2018-06-03T16:49:27.295Z,30.03
2018-06-03T16:51:56.938Z,29.48
2018-06-03T16:54:26.544Z,29.14
2018-06-03T16:56:56.047Z,29.44
2018-06-03T16:59:25.512Z,29.64
2018-06-03T17:01:54.928Z,29.95
2018-06-03T17:04:24.406Z,30.29
2018-06-03T17:06:53.966Z,29.91
2018-06-03T17:09:23.333Z,29.83
2018-06-03T17:11:52.862Z,30.19
2018-06-03T17:14:22.303Z,30.65
2018-06-03T17:16:51.778Z,30.87
2018-06-03T17:19:21.401Z,30.42
2018-06-03T17:21:50.834Z,30.14
2018-06-03T17:24:20.290Z,30.01
2018-06-03T17:26:49.921Z,29.78
2018-06-03T17:29:19.348Z,29.44
2018-06-03T17:31:48.865Z,28.98
2018-06-03T17:34:18.366Z,28.53
2018-06-03T17:36:47.805Z,28.10
2018-06-03T17:39:17.306Z,27.49
2018-06-03T17:41:46.445Z,27.33
2018-06-03T17:44:15.960Z,26.97
2018-06-03T17:46:45.456Z,26.90
2018-06-03T17:49:14.945Z,26.96
2018-06-03T17:51:44.370Z,26.75
2018-06-03T17:54:13.876Z,26.64
2018-06-03T17:56:43.338Z,26.55
2018-06-03T17:59:13.513Z,26.49
2018-06-03T18:01:42.986Z,26.21
2018-06-03T18:04:12.469Z,25.90
2018-06-03T18:06:41.942Z,25.79
2018-06-03T18:09:11.483Z,25.24
2018-06-03T18:11:40.943Z,24.91
2018-06-03T18:14:10.477Z,24.74
2018-06-03T18:16:40.004Z,24.50
2018-06-03T18:19:09.473Z,24.44
2018-06-03T18:21:38.956Z,24.35
2018-06-03T18:24:08.442Z,24.26
2018-06-03T18:26:37.878Z,24.02
2018-06-03T18:29:07.328Z,23.95
2018-06-03T18:31:36.807Z,23.93
2018-06-03T18:34:06.306Z,23.75
2018-06-03T18:36:35.795Z,23.64
2018-06-03T18:39:07.590Z,23.54
2018-06-03T18:41:37.035Z,23.47
2018-06-03T18:44:06.498Z,23.37
2018-06-03T18:46:39.713Z,23.29
2018-06-03T18:49:09.189Z,23.22
2018-06-03T18:51:38.746Z,23.16
2018-06-03T18:54:08.227Z,23.16
2018-06-03T18:56:37.729Z,23.09
2018-06-03T18:59:07.120Z,23.08
2018-06-03T19:01:36.607Z,22.93
2018-06-03T19:04:06.319Z,22.72
2018-06-03T19:06:35.868Z,22.82
2018-06-03T19:09:07.384Z,22.68
2018-06-03T19:11:36.890Z,22.54
2018-06-03T19:14:06.473Z,22.55
2018-06-03T19:16:35.945Z,22.41
2018-06-03T19:19:05.382Z,22.29
2018-06-03T19:21:34.778Z,22.16
2018-06-03T19:24:04.277Z,22.13
2018-06-03T19:26:33.727Z,22.16
2018-06-03T19:29:03.187Z,22.05
2018-06-03T19:31:32.611Z,21.88
2018-06-03T19:34:02.103Z,21.74
2018-06-03T19:36:31.612Z,21.68
2018-06-03T19:39:01.072Z,21.54
2018-06-03T19:41:30.614Z,21.33
2018-06-03T19:44:00.059Z,21.20
2018-06-03T19:46:29.510Z,21.22
2018-06-03T19:48:59.126Z,21.18
2018-06-03T19:51:28.595Z,21.13
2018-06-03T19:53:58.012Z,21.10
2018-06-03T19:56:27.466Z,21.09
2018-06-03T19:58:56.952Z,21.15
2018-06-03T20:01:26.598Z,21.01
2018-06-03T20:03:56.135Z,20.90
2018-06-03T20:06:25.548Z,20.72
2018-06-03T20:08:54.967Z,20.52
2018-06-03T20:11:24.388Z,20.60
2018-06-03T20:13:53.849Z,20.47
2018-06-03T20:16:23.286Z,20.43
2018-06-03T20:18:52.888Z,20.36
2018-06-03T20:21:22.513Z,20.38
2018-06-03T20:23:51.981Z,20.17
2018-06-03T20:26:21.426Z,20.05
2018-06-03T20:28:50.823Z,20.00
2018-06-03T20:31:20.271Z,20.07
2018-06-03T20:33:50.744Z,20.11
2018-06-03T20:36:21.156Z,20.00
2018-06-03T20:38:50.615Z,19.86
2018-06-03T20:41:35.775Z,19.69
2018-06-03T20:44:05.253Z,19.55
2018-06-03T20:46:34.376Z,19.57
2018-06-03T20:49:03.870Z,19.56
2018-06-03T20:51:33.448Z,19.70
2018-06-03T20:54:02.908Z,19.46
2018-06-03T20:56:32.340Z,19.29
2018-06-03T20:59:01.840Z,19.29
2018-06-03T21:01:31.272Z,19.12
2018-06-03T21:04:01.854Z,19.14
2018-06-03T21:06:31.401Z,19.08
2018-06-03T21:09:00.871Z,19.15
2018-06-03T21:11:30.404Z,19.17
2018-06-03T21:13:59.853Z,18.89
2018-06-03T21:16:29.303Z,18.90
2018-06-03T21:18:58.785Z,18.88
2018-06-03T21:21:28.198Z,18.90
2018-06-03T21:23:57.669Z,18.83
2018-06-03T21:26:28.165Z,18.72
2018-06-03T21:28:57.736Z,18.65
2018-06-03T21:31:27.235Z,18.49
2018-06-03T21:33:56.772Z,18.58
2018-06-03T21:36:26.176Z,18.76
2018-06-03T21:38:55.686Z,18.71
2018-06-03T21:41:27.296Z,18.56
2018-06-03T21:43:57.201Z,18.54
2018-06-03T21:46:26.671Z,18.49
2018-06-03T21:48:56.064Z,18.32
2018-06-03T21:51:25.595Z,18.39
2018-06-03T21:53:54.986Z,18.44
2018-06-03T21:56:24.413Z,18.20
2018-06-03T21:58:53.922Z,18.27
2018-06-03T22:01:23.372Z,18.18
2018-06-03T22:03:52.765Z,18.15
2018-06-03T22:06:22.244Z,18.12
2018-06-03T22:08:51.737Z,17.99
2018-06-03T22:11:21.255Z,18.14
2018-06-03T22:13:50.673Z,18.18
2018-06-03T22:16:20.216Z,18.01
2018-06-03T22:18:49.606Z,17.91
2018-06-03T22:21:19.602Z,17.89
2018-06-03T22:23:49.026Z,17.81
2018-06-03T22:26:19.472Z,17.70
2018-06-03T22:28:48.958Z,17.72
2018-06-03T22:31:18.437Z,17.79
2018-06-03T22:33:47.597Z,17.88
2018-06-03T22:36:17.019Z,17.69
2018-06-03T22:38:46.634Z,17.63
2018-06-03T22:41:16.062Z,17.49
2018-06-03T22:43:45.525Z,17.55
2018-06-03T22:46:16.818Z,17.45
2018-06-03T22:48:46.303Z,17.42
2018-06-03T22:51:15.791Z,17.40
2018-06-03T22:53:45.282Z,17.40
2018-06-03T22:56:14.640Z,17.39
2018-06-03T22:58:44.019Z,17.34
2018-06-03T23:01:13.498Z,17.34
2018-06-03T23:03:43.000Z,17.23
2018-06-03T23:06:14.283Z,17.22
2018-06-03T23:08:43.698Z,17.11
2018-06-03T23:11:13.101Z,17.21
2018-06-03T23:13:42.250Z,17.24
2018-06-03T23:16:11.692Z,17.06
2018-06-03T23:18:41.164Z,17.09
2018-06-03T23:21:10.586Z,17.01
2018-06-03T23:23:40.020Z,17.04
2018-06-03T23:26:09.447Z,17.07
2018-06-03T23:28:38.884Z,17.05
2018-06-03T23:31:08.475Z,17.13
2018-06-03T23:33:38.065Z,17.02
2018-06-03T23:36:07.499Z,16.96
2018-06-03T23:38:36.892Z,16.89
2018-06-03T23:41:06.284Z,16.83
2018-06-03T23:43:35.812Z,16.89
2018-06-03T23:46:05.461Z,16.94
2018-06-03T23:48:34.866Z,16.94
2018-06-03T23:51:04.310Z,16.88
2018-06-03T23:53:33.732Z,16.84
2018-06-03T23:56:03.167Z,16.67
2018-06-03T23:58:32.564Z,16.64
